Time;durP1;ratioP1;P1;durP2;ratioP2;P2;SDS_P1;SDS_P2;PMS_P1;PMS_P2;Temp;Humidity;BMP_temperature;BMP_pressure;BME280_temperature;BME280_humidity;BME280_pressure;Samples;Min_cycle;Max_cycle;Signal;HPM_P1;HPM_P2
2021/11/25 00:01:14;;;;;;;15.20;6.97;;;8.10;98.00;;;;;;5030961;28;20025;-49
2021/11/25 00:03:40;;;;;;;16.77;7.38;;;8.20;98.00;;;;;;5030028;28;20033;-49
2021/11/25 00:06:06;;;;;;;18.92;8.30;;;8.10;98.30;;;;;;5029791;28;20021;-49
2021/11/25 00:08:31;;;;;;;18.90;8.00;;;8.10;98.00;;;;;;5016765;28;20519;-49
2021/11/25 00:10:57;;;;;;;18.17;8.40;;;8.10;98.00;;;;;;5010759;28;20046;-49
2021/11/25 00:13:23;;;;;;;13.88;6.28;;;8.10;98.00;;;;;;5010507;28;20018;-49
2021/11/25 00:15:48;;;;;;;20.15;8.73;;;8.10;98.00;;;;;;5009531;28;20026;-49
2021/11/25 00:18:17;;;;;;;14.30;7.25;;;8.10;98.00;;;;;;5010132;28;20476;-49
2021/11/25 00:20:43;;;;;;;15.95;6.55;;;8.10;98.00;;;;;;5010616;28;20354;-49
2021/11/25 00:23:09;;;;;;;13.43;6.95;;;8.10;98.00;;;;;;5018247;28;20419;-50
2021/11/25 00:25:35;;;;;;;17.08;7.03;;;8.20;98.00;;;;;;5027783;28;20025;-50
2021/11/25 00:28:00;;;;;;;20.40;7.53;;;8.10;98.00;;;;;;5030235;28;20029;-50
2021/11/25 00:30:26;;;;;;;13.93;7.22;;;8.20;98.00;;;;;;5030755;28;20044;-50
2021/11/25 00:32:51;;;;;;;13.48;6.38;;;8.20;98.00;;;;;;5034035;28;20045;-50
2021/11/25 00:35:17;;;;;;;10.43;4.55;;;8.20;98.30;;;;;;5033237;28;20362;-50
2021/11/25 00:37:43;;;;;;;12.68;6.00;;;8.20;97.90;;;;;;5029293;28;20033;-50
2021/11/25 00:40:11;;;;;;;16.65;6.93;;;8.20;97.90;;;;;;5013918;28;20041;-50
2021/11/25 00:42:37;;;;;;;10.93;6.57;;;8.20;97.90;;;;;;5013715;28;20026;-49
2021/11/25 00:45:04;;;;;;;17.27;5.90;;;8.10;97.90;;;;;;5013272;28;20026;-50
2021/11/25 00:47:30;;;;;;;25.77;9.38;;;8.20;98.00;;;;;;5013789;28;20025;-50
2021/11/25 00:49:55;;;;;;;16.85;6.28;;;8.10;97.90;;;;;;5013489;28;20034;-50
2021/11/25 00:52:21;;;;;;;17.27;6.63;;;8.10;97.90;;;;;;5013133;28;20376;-50
2021/11/25 00:54:47;;;;;;;18.35;5.88;;;8.20;97.90;;;;;;5012500;28;20319;-50
2021/11/25 00:57:12;;;;;;;16.30;5.15;;;8.10;97.90;;;;;;5013265;28;20025;-49
2021/11/25 00:59:38;;;;;;;11.38;4.35;;;8.20;97.90;;;;;;5016134;28;20025;-50
2021/11/25 01:02:04;;;;;;;13.02;5.63;;;8.20;97.90;;;;;;5033486;28;20053;-50
2021/11/25 01:04:29;;;;;;;17.35;6.78;;;8.20;97.90;;;;;;5032745;28;20021;-50
2021/11/25 01:06:55;;;;;;;12.60;5.93;;;8.10;97.90;;;;;;5032458;28;20029;-50
2021/11/25 01:09:21;;;;;;;13.27;5.95;;;8.20;97.90;;;;;;5031843;28;20116;-49
2021/11/25 01:11:47;;;;;;;14.38;7.07;;;8.20;98.00;;;;;;5033070;28;20033;-49
2021/11/25 01:14:14;;;;;;;19.05;7.22;;;8.20;98.00;;;;;;5032855;28;20021;-49
2021/11/25 01:16:40;;;;;;;12.23;5.10;;;8.10;97.90;;;;;;5012327;28;20030;-50
2021/11/25 01:19:06;;;;;;;10.88;5.15;;;8.20;97.90;;;;;;5013269;28;20109;-50
2021/11/25 01:21:32;;;;;;;15.52;5.95;;;8.20;97.90;;;;;;5012772;28;20029;-49
2021/11/25 01:23:57;;;;;;;15.27;6.68;;;8.20;97.90;;;;;;5023094;28;20139;-49
2021/11/25 01:26:23;;;;;;;16.70;8.23;;;8.20;97.90;;;;;;5032074;28;20215;-49
2021/11/25 01:28:49;;;;;;;14.82;6.20;;;8.20;97.90;;;;;;5032736;28;20049;-49
2021/11/25 01:31:14;;;;;;;14.38;6.25;;;8.20;97.90;;;;;;5032536;28;20018;-50
2021/11/25 01:33:40;;;;;;;16.60;6.97;;;8.20;97.90;;;;;;5032746;28;20883;-49
2021/11/25 01:36:06;;;;;;;17.33;7.13;;;8.20;97.90;;;;;;5012177;28;20109;-50
2021/11/25 01:38:32;;;;;;;15.45;6.63;;;8.10;98.00;;;;;;5017845;28;20038;-49
2021/11/25 01:40:57;;;;;;;15.63;6.05;;;8.10;98.00;;;;;;5032279;28;20120;-49
2021/11/25 01:43:25;;;;;;;14.55;6.90;;;8.10;97.90;;;;;;5031265;28;20546;-49
2021/11/25 01:45:52;;;;;;;14.45;6.57;;;8.10;97.90;;;;;;5031924;28;20025;-50
2021/11/25 01:48:19;;;;;;;17.70;6.55;;;8.10;98.00;;;;;;5032388;28;20025;-49
2021/11/25 01:50:45;;;;;;;15.57;6.10;;;8.10;98.00;;;;;;5032163;28;20504;-49
2021/11/25 01:53:14;;;;;;;17.13;7.07;;;8.10;98.00;;;;;;5031436;28;20028;-49
2021/11/25 01:55:40;;;;;;;21.30;7.07;;;8.10;97.90;;;;;;5031199;28;20026;-49
2021/11/25 01:58:06;;;;;;;13.13;5.47;;;8.20;98.00;;;;;;5031320;28;20029;-49
2021/11/25 02:00:37;;;;;;;8.65;5.15;;;8.10;98.00;;;;;;5032771;28;20033;-49
2021/11/25 02:03:03;;;;;;;22.40;7.07;;;8.20;98.00;;;;;;5032101;28;20452;-49
2021/11/25 02:05:29;;;;;;;18.73;8.50;;;8.10;97.90;;;;;;5030381;28;20037;-49
2021/11/25 02:07:55;;;;;;;17.20;7.38;;;8.10;98.00;;;;;;5031878;28;20100;-49
2021/11/25 02:10:22;;;;;;;17.30;7.65;;;8.10;98.00;;;;;;5014230;28;20114;-50
2021/11/25 02:12:47;;;;;;;18.10;7.05;;;8.10;98.00;;;;;;5012320;28;20413;-50
2021/11/25 02:15:14;;;;;;;15.30;6.88;;;8.10;98.00;;;;;;5019131;28;20064;-49
2021/11/25 02:17:40;;;;;;;16.13;7.32;;;8.10;98.00;;;;;;5031906;28;20032;-49
2021/11/25 02:20:09;;;;;;;19.58;7.25;;;8.10;98.00;;;;;;5031648;28;20026;-49
2021/11/25 02:22:36;;;;;;;15.05;6.50;;;8.10;98.00;;;;;;5032280;28;20104;-50
2021/11/25 02:25:02;;;;;;;18.27;7.32;;;8.10;98.00;;;;;;5029393;28;20384;-50
2021/11/25 02:27:27;;;;;;;13.73;5.80;;;8.20;98.00;;;;;;5031497;28;20056;-49
2021/11/25 02:29:53;;;;;;;20.08;8.18;;;8.20;98.00;;;;;;5031371;28;20364;-50
2021/11/25 02:32:38;;;;;;;17.17;7.32;;;8.20;97.90;;;;;;5031758;28;20022;-50
2021/11/25 02:35:10;;;;;;;21.27;8.10;;;8.20;98.00;;;;;;5030303;28;20072;-50
2021/11/25 02:37:36;;;;;;;20.63;8.25;;;8.10;98.00;;;;;;5031432;28;20029;-50
2021/11/25 02:40:22;;;;;;;15.63;7.32;;;8.10;98.00;;;;;;5030708;28;20033;-50
2021/11/25 02:42:54;;;;;;;17.20;7.32;;;8.10;98.00;;;;;;5017303;28;20038;-50
2021/11/25 02:45:21;;;;;;;19.13;7.80;;;8.10;98.00;;;;;;5010702;28;20033;-49
2021/11/25 02:47:47;;;;;;;17.52;5.75;;;8.10;98.30;;;;;;5011629;28;20030;-49
2021/11/25 02:50:15;;;;;;;20.50;6.53;;;8.10;98.00;;;;;;5011016;28;20041;-49
2021/11/25 02:52:42;;;;;;;15.93;6.70;;;8.10;98.00;;;;;;5025461;28;20029;-50
2021/11/25 02:55:09;;;;;;;18.02;7.80;;;8.10;98.00;;;;;;5016762;28;20386;-50
2021/11/25 02:57:36;;;;;;;20.65;7.60;;;8.20;98.00;;;;;;5011083;28;20361;-49
2021/11/25 03:00:05;;;;;;;20.48;7.88;;;8.20;98.00;;;;;;5010983;28;20038;-49
2021/11/25 03:02:31;;;;;;;17.75;6.50;;;8.20;98.00;;;;;;5011180;28;20080;-50
2021/11/25 03:04:56;;;;;;;18.65;5.85;;;8.20;98.00;;;;;;5010861;28;20021;-50
2021/11/25 03:07:22;;;;;;;14.18;6.18;;;8.20;97.90;;;;;;5010715;28;20124;-50
2021/11/25 03:09:47;;;;;;;19.17;7.18;;;8.20;98.00;;;;;;5018487;28;20041;-50
2021/11/25 03:12:13;;;;;;;17.65;6.70;;;8.20;98.00;;;;;;5031223;28;20152;-50
2021/11/25 03:14:39;;;;;;;18.45;8.35;;;8.20;98.00;;;;;;5031245;28;20070;-50
2021/11/25 03:17:04;;;;;;;20.25;7.40;;;8.20;97.90;;;;;;5028173;28;20034;-50
2021/11/25 03:19:30;;;;;;;17.75;7.80;;;8.20;98.00;;;;;;5030749;28;20568;-50
2021/11/25 03:21:55;;;;;;;17.50;6.95;;;8.20;98.00;;;;;;5030593;28;20461;-50
2021/11/25 03:24:21;;;;;;;19.92;8.27;;;8.10;98.00;;;;;;5029738;28;20029;-50
2021/11/25 03:26:47;;;;;;;13.05;7.00;;;8.20;98.00;;;;;;5030061;28;20026;-49
2021/11/25 03:29:13;;;;;;;19.55;6.43;;;8.20;98.40;;;;;;5030097;28;20084;-50
2021/11/25 03:31:38;;;;;;;23.73;8.45;;;8.20;97.90;;;;;;5030392;28;20021;-50
2021/11/25 03:34:04;;;;;;;16.08;7.18;;;8.20;97.90;;;;;;5030453;28;20040;-49
2021/11/25 03:36:30;;;;;;;20.98;7.55;;;8.20;98.00;;;;;;5021668;28;20018;-49
2021/11/25 03:38:57;;;;;;;19.77;8.88;;;8.20;98.00;;;;;;5030814;28;20030;-50
2021/11/25 03:41:23;;;;;;;23.65;8.95;;;8.10;98.00;;;;;;5029410;28;20034;-49
2021/11/25 03:43:50;;;;;;;20.45;8.43;;;8.20;98.00;;;;;;5029988;28;20120;-49
2021/11/25 03:46:16;;;;;;;23.58;7.70;;;8.10;98.00;;;;;;5029888;28;20026;-50
2021/11/25 03:48:41;;;;;;;21.52;8.48;;;8.10;98.00;;;;;;5017177;28;20028;-49
2021/11/25 03:51:09;;;;;;;22.25;9.32;;;8.10;98.10;;;;;;5012243;28;20033;-49
2021/11/25 03:53:37;;;;;;;20.25;7.38;;;8.10;98.00;;;;;;5028750;28;20109;-50
2021/11/25 03:56:03;;;;;;;16.83;7.43;;;8.10;98.00;;;;;;5028279;28;20477;-50
2021/11/25 03:58:28;;;;;;;23.60;7.63;;;8.10;98.10;;;;;;5030143;28;20464;-50
2021/11/25 04:00:54;;;;;;;16.00;6.97;;;8.20;98.10;;;;;;5030308;28;20037;-49
2021/11/25 04:03:22;;;;;;;20.52;7.70;;;8.20;98.40;;;;;;5030313;28;20033;-50
2021/11/25 04:05:48;;;;;;;21.27;8.23;;;8.20;98.10;;;;;;5031112;28;20113;-50
2021/11/25 04:08:14;;;;;;;25.00;8.15;;;8.20;98.10;;;;;;5034045;28;20120;-50
2021/11/25 04:10:39;;;;;;;16.10;6.65;;;8.20;98.10;;;;;;5022475;28;20029;-50
2021/11/25 04:13:05;;;;;;;23.73;9.15;;;8.20;98.10;;;;;;5014488;28;20338;-50
2021/11/25 04:15:31;;;;;;;24.23;9.23;;;8.20;98.10;;;;;;5013151;28;20410;-50
2021/11/25 04:17:57;;;;;;;19.95;8.43;;;8.20;98.00;;;;;;5014038;28;20026;-50
2021/11/25 04:20:23;;;;;;;20.35;8.20;;;8.20;98.10;;;;;;5014264;28;20353;-50
2021/11/25 04:22:48;;;;;;;22.60;7.90;;;8.20;98.10;;;;;;5012359;28;20377;-50
2021/11/25 04:25:15;;;;;;;24.25;7.80;;;8.20;98.10;;;;;;5019220;28;20030;-49
2021/11/25 04:27:42;;;;;;;18.92;8.05;;;8.20;98.10;;;;;;5032121;28;20034;-50
2021/11/25 04:35:33;;;;;;;14.65;6.90;;;8.20;98.10;;;;;;5013383;28;20033;-50
2021/11/25 04:38:10;;;;;;;17.27;7.18;;;8.20;98.10;;;;;;5013908;28;20045;-49
2021/11/25 04:40:57;;;;;;;17.58;8.07;;;8.10;98.00;;;;;;5013480;28;20092;-49
2021/11/25 04:43:24;;;;;;;25.70;8.77;;;8.20;98.10;;;;;;5013800;28;20457;-50
2021/11/25 04:45:51;;;;;;;21.02;7.43;;;8.20;98.10;;;;;;5012694;28;20052;-50
2021/11/25 04:48:19;;;;;;;19.10;7.82;;;8.20;98.10;;;;;;5013161;28;20026;-49
2021/11/25 04:50:44;;;;;;;20.02;8.75;;;8.20;98.00;;;;;;5013667;28;20175;-50
2021/11/25 04:53:12;;;;;;;20.25;6.90;;;8.20;98.10;;;;;;5012990;28;20104;-50
2021/11/25 04:55:38;;;;;;;24.75;8.90;;;8.20;98.00;;;;;;5019898;28;20041;-50
2021/11/25 04:58:04;;;;;;;25.33;8.48;;;8.20;98.00;;;;;;5032891;28;20082;-49
2021/11/25 05:00:30;;;;;;;18.40;7.53;;;8.10;98.00;;;;;;5033263;28;20124;-50
2021/11/25 05:02:56;;;;;;;27.88;9.32;;;8.20;98.00;;;;;;5031613;28;20026;-50
2021/11/25 05:05:22;;;;;;;20.42;9.30;;;8.20;98.10;;;;;;5032768;28;20371;-49
2021/11/25 05:07:48;;;;;;;22.83;7.15;;;8.20;98.10;;;;;;5032556;28;20516;-49
2021/11/25 05:10:14;;;;;;;25.30;9.13;;;8.20;98.10;;;;;;5031940;28;20060;-49
2021/11/25 05:12:39;;;;;;;18.92;7.63;;;8.20;98.10;;;;;;5033246;28;20437;-49
2021/11/25 05:15:08;;;;;;;23.52;9.02;;;8.20;98.10;;;;;;5032449;28;20113;-50
2021/11/25 05:17:34;;;;;;;20.25;7.45;;;8.20;98.00;;;;;;5031763;28;20091;-49
2021/11/25 05:20:00;;;;;;;18.05;7.75;;;8.20;98.10;;;;;;5032799;28;20356;-49
2021/11/25 05:22:25;;;;;;;17.40;7.95;;;8.20;98.10;;;;;;5032345;28;20474;-49
2021/11/25 05:24:51;;;;;;;23.15;8.25;;;8.20;98.40;;;;;;5032877;28;20472;-50
2021/11/25 05:27:17;;;;;;;20.65;8.50;;;8.20;98.10;;;;;;5016239;28;20036;-49
2021/11/25 05:29:42;;;;;;;27.77;9.38;;;8.10;98.00;;;;;;5033008;28;20048;-49
2021/11/25 05:32:08;;;;;;;24.10;9.70;;;8.20;98.10;;;;;;5031586;28;20461;-49
2021/11/25 05:34:34;;;;;;;19.92;8.65;;;8.10;98.10;;;;;;5032234;28;20033;-50
2021/11/25 05:37:00;;;;;;;19.08;8.63;;;8.20;98.10;;;;;;5029890;28;20026;-49
2021/11/25 05:39:25;;;;;;;22.95;7.13;;;8.10;98.10;;;;;;5032787;28;20591;-49
2021/11/25 05:41:51;;;;;;;12.57;6.40;;;8.10;98.00;;;;;;5031614;28;20026;-50
2021/11/25 05:44:16;;;;;;;23.85;8.10;;;8.20;98.10;;;;;;5032031;28;20037;-50
2021/11/25 05:46:42;;;;;;;25.77;9.60;;;8.20;98.00;;;;;;5031265;28;20037;-50
2021/11/25 05:49:08;;;;;;;22.85;9.15;;;8.20;98.00;;;;;;5032582;28;20070;-49
2021/11/25 05:51:34;;;;;;;23.80;9.20;;;8.10;98.00;;;;;;5032425;28;20029;-49
2021/11/25 05:54:00;;;;;;;24.30;9.77;;;8.10;98.10;;;;;;5031187;28;20575;-49
2021/11/25 05:56:26;;;;;;;22.33;8.00;;;8.10;98.10;;;;;;5030570;28;20388;-49
2021/11/25 05:58:54;;;;;;;16.98;7.07;;;8.10;98.10;;;;;;5031721;28;20452;-50
2021/11/25 06:01:22;;;;;;;25.15;7.22;;;8.20;98.10;;;;;;5031898;28;20030;-49
2021/11/25 06:03:49;;;;;;;19.27;7.28;;;8.20;98.10;;;;;;5031915;28;20323;-49
2021/11/25 06:06:14;;;;;;;19.95;6.78;;;8.20;98.10;;;;;;5031337;28;20037;-49
2021/11/25 06:08:40;;;;;;;22.38;7.63;;;8.20;98.10;;;;;;5031937;28;20035;-50
2021/11/25 06:11:06;;;;;;;21.38;8.23;;;8.20;98.10;;;;;;5025090;28;20449;-49
2021/11/25 06:13:31;;;;;;;31.60;15.95;;;8.10;98.10;;;;;;5012249;28;20049;-49
2021/11/25 06:15:57;;;;;;;25.58;8.95;;;8.20;98.10;;;;;;5011656;28;20026;-49
2021/11/25 06:18:22;;;;;;;20.55;7.60;;;8.20;98.10;;;;;;5011684;28;20440;-49
2021/11/25 06:20:48;;;;;;;17.05;6.78;;;8.10;98.20;;;;;;5012120;28;20022;-49
2021/11/25 06:23:14;;;;;;;15.82;7.38;;;8.20;98.10;;;;;;5012018;28;20056;-50
2021/11/25 06:25:42;;;;;;;18.70;7.45;;;8.20;98.10;;;;;;5012076;28;20033;-49
2021/11/25 06:28:07;;;;;;;24.48;8.68;;;8.20;98.10;;;;;;5030763;28;20076;-49
2021/11/25 06:30:33;;;;;;;19.98;8.27;;;8.20;98.10;;;;;;5031585;28;20360;-49
2021/11/25 06:32:58;;;;;;;19.77;7.82;;;8.20;98.10;;;;;;5030753;28;20506;-49
2021/11/25 06:35:24;;;;;;;17.75;7.10;;;8.10;98.10;;;;;;5030191;28;20029;-49
2021/11/25 06:37:52;;;;;;;27.65;8.80;;;8.20;98.10;;;;;;5031392;28;20024;-50
2021/11/25 06:40:22;;;;;;;20.08;8.30;;;8.20;98.10;;;;;;5031710;28;20025;-50
2021/11/25 06:42:48;;;;;;;25.58;8.60;;;8.10;98.00;;;;;;5029863;28;20057;-50
2021/11/25 06:45:14;;;;;;;24.00;7.82;;;8.10;98.00;;;;;;5029033;28;20382;-50
2021/11/25 06:47:40;;;;;;;23.85;8.93;;;8.10;97.80;;;;;;5030582;28;20041;-50
2021/11/25 06:50:09;;;;;;;22.90;8.77;;;8.10;97.70;;;;;;5031441;28;20092;-50
2021/11/25 06:52:35;;;;;;;24.92;7.60;;;8.10;97.80;;;;;;5031181;28;20074;-50
2021/11/25 06:55:01;;;;;;;17.08;7.68;;;8.10;97.80;;;;;;5030246;28;20034;-50
2021/11/25 06:57:26;;;;;;;19.23;8.15;;;8.10;97.80;;;;;;5030138;28;20351;-50
2021/11/25 06:59:52;;;;;;;19.88;8.95;;;8.10;97.80;;;;;;5030714;28;20033;-50
2021/11/25 07:02:18;;;;;;;21.20;9.15;;;8.10;97.80;;;;;;5030577;28;20033;-50
2021/11/25 07:04:43;;;;;;;28.92;10.45;;;8.10;97.80;;;;;;5030955;28;20376;-50
2021/11/25 07:07:09;;;;;;;16.05;7.85;;;8.10;97.90;;;;;;5013846;28;20556;-50
2021/11/25 07:09:35;;;;;;;21.33;7.97;;;8.10;97.80;;;;;;5029057;28;20033;-50
2021/11/25 07:12:00;;;;;;;24.52;8.63;;;8.10;97.90;;;;;;5020785;28;20460;-50
2021/11/25 07:14:26;;;;;;;25.75;8.65;;;8.10;97.90;;;;;;5010405;28;20046;-50
2021/11/25 07:16:51;;;;;;;25.88;9.25;;;8.10;97.90;;;;;;5009957;28;20620;-50
2021/11/25 07:19:17;;;;;;;28.05;9.55;;;8.10;97.90;;;;;;5010519;28;20103;-50
2021/11/25 07:21:43;;;;;;;27.17;9.73;;;8.10;97.90;;;;;;5010539;28;20026;-50
2021/11/25 07:24:08;;;;;;;20.33;9.20;;;8.10;97.90;;;;;;5010667;28;20041;-50
2021/11/25 07:26:34;;;;;;;26.33;8.80;;;8.10;97.90;;;;;;5014200;28;20052;-50
2021/11/25 07:28:59;;;;;;;19.67;8.95;;;8.10;97.90;;;;;;5029704;28;20384;-50
2021/11/25 07:31:28;;;;;;;22.85;8.18;;;8.10;98.00;;;;;;5030148;28;20416;-50
2021/11/25 07:33:55;;;;;;;22.80;9.05;;;8.10;98.00;;;;;;5030528;28;20057;-50
2021/11/25 07:36:21;;;;;;;28.38;8.45;;;8.10;98.00;;;;;;5029270;28;20033;-50
2021/11/25 07:38:46;;;;;;;22.20;9.60;;;8.10;98.00;;;;;;5030605;28;20021;-50
2021/11/25 07:41:12;;;;;;;25.40;9.85;;;8.10;98.00;;;;;;5029912;28;20042;-50
2021/11/25 07:43:38;;;;;;;21.02;8.55;;;8.10;98.00;;;;;;5014019;28;20420;-50
2021/11/25 07:46:03;;;;;;;26.60;8.95;;;8.10;98.10;;;;;;5013845;28;20117;-50
2021/11/25 07:48:29;;;;;;;25.85;9.43;;;8.10;98.00;;;;;;5014941;28;20061;-50
2021/11/25 07:50:55;;;;;;;22.77;8.55;;;8.10;98.00;;;;;;5014349;28;20026;-50
2021/11/25 07:53:21;;;;;;;25.20;9.35;;;8.10;98.10;;;;;;5014400;28;20365;-50
2021/11/25 07:55:47;;;;;;;29.05;10.55;;;8.20;98.10;;;;;;5014398;28;20037;-51
2021/11/25 07:58:12;;;;;;;26.27;9.85;;;8.20;98.10;;;;;;5029348;28;20030;-50
2021/11/25 08:00:38;;;;;;;21.23;8.40;;;8.10;98.10;;;;;;5033589;28;20042;-50
2021/11/25 08:03:03;;;;;;;28.73;9.82;;;8.10;98.10;;;;;;5034159;28;20025;-50
2021/11/25 08:05:29;;;;;;;29.75;10.68;;;8.20;98.10;;;;;;5032913;28;20029;-50
2021/11/25 08:07:57;;;;;;;27.52;10.05;;;8.10;98.00;;;;;;5034070;28;20056;-50
2021/11/25 08:10:25;;;;;;;29.48;10.13;;;8.10;98.10;;;;;;5034670;28;20037;-50
2021/11/25 08:12:51;;;;;;;35.05;9.25;;;8.10;98.00;;;;;;5022972;28;20033;-50
2021/11/25 08:15:17;;;;;;;26.33;8.93;;;8.10;98.10;;;;;;5013304;28;20045;-50
2021/11/25 08:17:43;;;;;;;26.73;9.38;;;8.10;98.10;;;;;;5014247;28;20029;-50
2021/11/25 08:20:10;;;;;;;23.38;9.23;;;8.10;98.10;;;;;;5013811;28;20087;-50
2021/11/25 08:22:36;;;;;;;30.38;9.95;;;8.10;98.10;;;;;;5014836;28;20026;-50
2021/11/25 08:25:05;;;;;;;24.27;8.82;;;8.10;98.00;;;;;;5013280;28;20032;-50
2021/11/25 08:27:30;;;;;;;26.40;9.57;;;8.10;98.00;;;;;;5015065;28;20069;-50
2021/11/25 08:29:56;;;;;;;23.25;8.88;;;8.10;98.10;;;;;;5033724;28;20121;-51
2021/11/25 08:32:22;;;;;;;20.98;9.07;;;8.10;98.10;;;;;;5033489;28;20033;-51
2021/11/25 08:34:47;;;;;;;23.13;8.23;;;8.10;98.10;;;;;;5032494;28;20104;-50
2021/11/25 08:37:13;;;;;;;25.90;7.95;;;8.10;98.00;;;;;;5032965;28;20025;-50
2021/11/25 08:39:39;;;;;;;17.95;8.30;;;8.10;98.00;;;;;;5033498;28;20029;-50
2021/11/25 08:42:06;;;;;;;24.88;8.65;;;8.10;98.10;;;;;;5024414;28;20022;-50
2021/11/25 08:44:32;;;;;;;24.35;8.75;;;8.10;98.00;;;;;;5032791;28;20369;-50
2021/11/25 08:46:58;;;;;;;26.67;8.45;;;8.10;98.10;;;;;;5032935;28;20025;-50
2021/11/25 08:49:24;;;;;;;24.63;10.00;;;8.10;98.00;;;;;;5032854;28;20042;-50
2021/11/25 08:51:50;;;;;;;32.75;10.52;;;8.10;98.20;;;;;;5033120;28;20025;-51
2021/11/25 08:54:17;;;;;;;29.77;9.40;;;8.10;98.00;;;;;;5033435;28;20029;-51
2021/11/25 08:56:42;;;;;;;29.67;9.95;;;8.10;98.10;;;;;;5031843;28;20025;-50
2021/11/25 08:59:08;;;;;;;31.73;9.57;;;8.20;98.10;;;;;;5031348;28;20030;-50
2021/11/25 09:01:33;;;;;;;26.10;9.85;;;8.10;98.00;;;;;;5033507;28;20022;-50
2021/11/25 09:04:00;;;;;;;24.50;8.98;;;8.10;98.10;;;;;;5033074;28;20140;-50
2021/11/25 09:06:26;;;;;;;23.02;9.60;;;8.10;98.10;;;;;;5032146;28;20112;-50
2021/11/25 09:08:52;;;;;;;25.25;9.35;;;8.10;98.10;;;;;;5032865;28;20029;-50
2021/11/25 09:11:18;;;;;;;24.40;8.45;;;8.10;98.10;;;;;;5031838;28;20502;-50
2021/11/25 09:13:44;;;;;;;17.73;7.03;;;8.10;98.00;;;;;;5019233;28;20038;-50
2021/11/25 09:16:10;;;;;;;23.17;8.57;;;8.10;98.10;;;;;;5012196;28;20037;-50
2021/11/25 09:18:35;;;;;;;22.52;8.68;;;8.20;98.20;;;;;;5012937;28;20022;-50
2021/11/25 09:21:01;;;;;;;22.42;8.23;;;8.20;98.10;;;;;;5030761;28;20084;-50
2021/11/25 09:23:28;;;;;;;17.85;8.63;;;8.20;98.20;;;;;;5015392;28;20029;-50
2021/11/25 09:25:54;;;;;;;24.58;9.80;;;8.20;98.10;;;;;;5031429;28;20467;-50
2021/11/25 09:28:24;;;;;;;24.40;9.27;;;8.20;98.10;;;;;;5031502;28;20044;-50
2021/11/25 09:30:51;;;;;;;26.10;9.30;;;8.20;98.30;;;;;;5032472;28;20025;-50
2021/11/25 09:33:18;;;;;;;25.17;9.02;;;8.10;98.00;;;;;;5032347;28;20034;-50
2021/11/25 09:35:44;;;;;;;41.95;11.52;;;8.20;98.20;;;;;;5031794;28;20029;-50
2021/11/25 09:38:11;;;;;;;27.13;11.77;;;8.20;98.20;;;;;;5032772;28;20025;-50
2021/11/25 09:40:38;;;;;;;36.03;12.73;;;8.20;98.20;;;;;;5032328;28;20120;-50
2021/11/25 09:43:08;;;;;;;33.17;12.38;;;8.20;98.20;;;;;;5025923;28;20037;-50
2021/11/25 09:45:37;;;;;;;31.23;12.07;;;8.20;98.30;;;;;;5012470;28;20041;-50
2021/11/25 09:48:10;;;;;;;39.17;12.90;;;8.10;98.20;;;;;;5012654;28;20037;-50
2021/11/25 09:50:39;;;;;;;33.47;10.70;;;8.20;98.20;;;;;;5012451;28;20030;-50
2021/11/25 09:53:10;;;;;;;33.28;11.30;;;8.20;98.40;;;;;;5011768;28;20465;-50
2021/11/25 09:55:38;;;;;;;30.42;10.63;;;8.20;98.20;;;;;;5011045;28;20034;-50
2021/11/25 09:58:05;;;;;;;22.65;9.75;;;8.20;98.20;;;;;;5015740;28;20030;-50
2021/11/25 10:00:33;;;;;;;39.70;10.57;;;8.20;98.30;;;;;;5032101;28;20626;-50
2021/11/25 10:02:59;;;;;;;27.67;10.32;;;8.20;98.30;;;;;;5030595;28;20423;-50
2021/11/25 10:05:25;;;;;;;26.58;10.02;;;8.10;98.20;;;;;;5031079;28;20033;-50
2021/11/25 10:07:51;;;;;;;32.47;9.98;;;8.20;98.40;;;;;;5031603;28;20350;-50
2021/11/25 10:10:29;;;;;;;36.72;9.93;;;8.20;98.30;;;;;;5030192;28;20044;-50
2021/11/25 10:13:02;;;;;;;22.08;7.25;;;8.20;98.30;;;;;;5031034;28;20024;-50
2021/11/25 10:15:36;;;;;;;22.85;9.52;;;8.20;98.50;;;;;;5030874;28;20457;-50
2021/11/25 10:18:05;;;;;;;34.20;10.23;;;8.20;98.40;;;;;;5031516;28;20025;-50
2021/11/25 10:20:34;;;;;;;28.10;9.03;;;8.20;98.40;;;;;;5017513;28;20109;-50
2021/11/25 10:23:03;;;;;;;28.83;10.00;;;8.20;98.30;;;;;;5010173;28;20083;-50
2021/11/25 10:25:48;;;;;;;37.50;12.70;;;8.20;98.30;;;;;;5010809;28;20034;-50
2021/11/25 10:28:21;;;;;;;25.90;9.80;;;8.20;98.20;;;;;;5022609;28;20388;-51
2021/11/25 10:30:49;;;;;;;31.80;11.05;;;8.20;98.40;;;;;;5030876;28;20026;-50
2021/11/25 10:33:22;;;;;;;31.00;10.07;;;8.20;98.20;;;;;;5031243;28;20026;-50
2021/11/25 10:36:15;;;;;;;30.90;10.35;;;8.20;98.30;;;;;;5030559;28;20025;-50
2021/11/25 10:41:21;;;;;;;29.73;10.18;;;8.20;98.20;;;;;;5030600;28;20041;-50
2021/11/25 10:44:07;;;;;;;33.55;10.27;;;8.20;98.30;;;;;;5023775;28;20026;-50
2021/11/25 10:46:42;;;;;;;21.58;8.45;;;8.20;98.20;;;;;;5010374;28;20381;-50
2021/11/25 10:49:11;;;;;;;27.67;10.88;;;8.20;98.20;;;;;;5010956;28;20038;-50
2021/11/25 10:51:38;;;;;;;22.77;9.27;;;8.20;98.30;;;;;;5011333;28;20026;-50
2021/11/25 10:54:13;;;;;;;31.17;10.27;;;8.20;98.20;;;;;;5011409;28;20041;-50
2021/11/25 10:56:54;;;;;;;33.28;11.05;;;8.20;98.20;;;;;;5021886;28;20021;-50
2021/11/25 10:59:33;;;;;;;31.27;11.48;;;8.20;98.20;;;;;;5019225;28;20061;-51
2021/11/25 11:01:58;;;;;;;29.02;10.55;;;8.20;98.30;;;;;;5010877;28;20030;-51
2021/11/25 11:04:28;;;;;;;23.13;8.80;;;8.20;98.30;;;;;;5011068;28;20353;-50
2021/11/25 11:06:55;;;;;;;17.15;7.70;;;8.20;98.30;;;;;;5010590;28;20022;-51
2021/11/25 11:09:30;;;;;;;20.85;7.97;;;8.20;98.40;;;;;;5011094;28;20042;-50
2021/11/25 11:12:16;;;;;;;18.50;8.27;;;8.20;98.40;;;;;;5010493;28;20022;-50
2021/11/25 11:14:51;;;;;;;35.22;10.18;;;8.20;98.30;;;;;;5022312;28;20476;-51
2021/11/25 11:17:29;;;;;;;31.90;10.05;;;8.20;98.30;;;;;;5029618;28;20025;-50
2021/11/25 11:20:27;;;;;;;28.98;9.20;;;8.30;98.30;;;;;;5030940;28;20025;-50
2021/11/25 11:23:03;;;;;;;25.90;9.13;;;8.20;98.30;;;;;;5025274;28;20045;-50
2021/11/25 11:25:33;;;;;;;19.17;7.47;;;8.20;98.40;;;;;;5029434;28;20476;-50
2021/11/25 11:28:00;;;;;;;20.65;8.70;;;8.20;98.40;;;;;;5030349;28;20108;-51
2021/11/25 11:30:26;;;;;;;21.35;8.10;;;8.20;98.40;;;;;;5029746;28;20045;-50
2021/11/25 11:32:52;;;;;;;18.10;8.02;;;8.20;98.40;;;;;;5030272;28;20112;-50
2021/11/25 11:35:22;;;;;;;25.42;8.85;;;8.20;98.40;;;;;;5029159;28;20091;-51
2021/11/25 11:37:49;;;;;;;20.67;7.47;;;8.20;98.40;;;;;;5030610;28;20021;-51
2021/11/25 11:40:14;;;;;;;23.67;8.00;;;8.20;98.40;;;;;;5030225;28;20022;-51
2021/11/25 11:42:41;;;;;;;23.02;9.10;;;8.20;98.40;;;;;;5030490;28;20370;-50
2021/11/25 11:45:08;;;;;;;20.55;7.88;;;8.20;98.40;;;;;;5015218;28;20026;-50
2021/11/25 11:47:34;;;;;;;22.40;8.57;;;8.20;98.30;;;;;;5010011;28;20032;-50
2021/11/25 11:50:12;;;;;;;30.73;8.25;;;8.20;98.40;;;;;;5010939;28;20076;-50
2021/11/25 11:52:57;;;;;;;22.05;8.70;;;8.20;98.40;;;;;;5010533;28;20345;-50
2021/11/25 11:55:38;;;;;;;20.85;7.18;;;8.20;98.30;;;;;;5009326;28;20034;-50
2021/11/25 11:58:23;;;;;;;20.70;8.20;;;8.20;98.40;;;;;;5009540;28;20072;-51
2021/11/25 12:00:51;;;;;;;19.30;8.00;;;8.30;98.40;;;;;;5028189;28;20044;-51
2021/11/25 12:04:12;;;;;;;17.50;7.95;;;8.20;98.40;;;;;;5029682;28;20105;-50
2021/11/25 12:06:42;;;;;;;28.83;10.25;;;8.30;98.40;;;;;;4921723;29;20040;-51
2021/11/25 12:09:22;;;;;;;20.88;8.48;;;8.30;98.40;;;;;;4929327;29;20051;-50
2021/11/25 12:11:56;;;;;;;17.35;7.57;;;8.30;98.40;;;;;;4930193;29;20352;-50
2021/11/25 12:14:26;;;;;;;20.08;7.30;;;8.30;98.60;;;;;;4929173;29;20124;-51
2021/11/25 12:17:01;;;;;;;15.65;7.15;;;8.30;98.50;;;;;;4928529;29;20066;-51
2021/11/25 12:19:29;;;;;;;14.38;6.05;;;8.30;98.50;;;;;;4930251;29;20273;-51
2021/11/25 12:22:01;;;;;;;19.48;7.97;;;8.30;98.60;;;;;;4930042;29;20032;-51
2021/11/25 12:24:55;;;;;;;18.60;8.35;;;8.30;98.40;;;;;;4929777;29;20032;-50
2021/11/25 12:27:28;;;;;;;20.58;7.70;;;8.30;98.40;;;;;;4933351;29;20368;-50
2021/11/25 12:29:56;;;;;;;19.13;7.18;;;8.30;98.50;;;;;;4942774;29;20044;-50
2021/11/25 12:35:13;;;;;;;24.90;8.50;;;8.30;98.40;;;;;;4933267;29;20047;-50
2021/11/25 12:38:11;;;;;;;19.45;6.60;;;8.20;98.30;;;;;;4933352;29;20031;-50
2021/11/25 12:40:43;;;;;;;19.88;7.18;;;8.30;98.50;;;;;;4933145;29;20035;-50
2021/11/25 12:43:19;;;;;;;17.52;7.45;;;8.30;98.40;;;;;;5033037;28;20032;-51
2021/11/25 12:45:51;;;;;;;17.27;6.53;;;8.30;98.40;;;;;;5017000;28;20037;-50
2021/11/25 12:48:20;;;;;;;20.40;7.85;;;8.30;98.50;;;;;;5013461;28;20155;-50
2021/11/25 12:50:54;;;;;;;15.55;6.72;;;8.30;98.50;;;;;;5013765;28;20037;-50
2021/11/25 12:53:25;;;;;;;11.98;5.97;;;8.30;98.40;;;;;;5012968;28;20164;-50
2021/11/25 12:55:56;;;;;;;18.02;7.15;;;8.30;98.40;;;;;;5013140;28;20100;-50
2021/11/25 12:58:39;;;;;;;15.70;6.20;;;8.30;98.50;;;;;;5013496;28;20527;-51
2021/11/25 13:01:11;;;;;;;21.60;7.00;;;8.30;98.40;;;;;;5028605;28;20209;-50